Terminal Aerodrome Forecast
Issued by NWS Jacksonville, FL

Home | Current Version | Previous Version | Text Only | Print | Product List | Glossary On
Versions: 1 2 3 4 5 6 7 8 9 10 11 12 13 14 15 16 17 18
000
FTUS42 KJAX 031120
TAFSSI
TAF
KSSI 031120Z 0312/0412 24006KT P6SM FEW030 SCT120 OVC250
     FM031400 16005KT P6SM SCT040 SCT120 BKN250
     FM031800 10010KT P6SM VCTS SCT030CB BKN050
     FM040000 13007KT P6SM VCSH SCT030 BKN050=

USA.gov is the U.S. government's official web portal to all federal, state and local government web resources and services.